sensor_id;sensor_type;location;lat;lon;timestamp;temperature;humidity
22098;DHT22;11215;51.938;8.464;2023-04-15T03:37:02;10.00;57.90
22098;DHT22;11215;51.938;8.464;2023-04-15T04:01:01;9.80;58.30
22098;DHT22;11215;51.938;8.464;2023-04-15T04:03:27;9.80;57.50
22098;DHT22;11215;51.938;8.464;2023-04-15T04:05:52;9.70;57.70
22098;DHT22;11215;51.938;8.464;2023-04-15T04:08:18;9.70;57.90
22098;DHT22;11215;51.938;8.464;2023-04-15T04:10:46;9.70;58.00
22098;DHT22;11215;51.938;8.464;2023-04-15T04:13:11;9.70;58.90
22098;DHT22;11215;51.938;8.464;2023-04-15T04:15:37;9.70;58.50
22098;DHT22;11215;51.938;8.464;2023-04-15T04:18:03;9.60;58.50
22098;DHT22;11215;51.938;8.464;2023-04-15T04:20:28;9.60;59.30
22098;DHT22;11215;51.938;8.464;2023-04-15T04:22:56;9.60;58.70
22098;DHT22;11215;51.938;8.464;2023-04-15T04:25:22;9.60;58.80
22098;DHT22;11215;51.938;8.464;2023-04-15T04:27:49;9.60;58.90
22098;DHT22;11215;51.938;8.464;2023-04-15T04:30:14;9.60;58.90
22098;DHT22;11215;51.938;8.464;2023-04-15T04:32:40;9.60;59.00
22098;DHT22;11215;51.938;8.464;2023-04-15T04:35:06;9.60;59.10
22098;DHT22;11215;51.938;8.464;2023-04-15T04:37:32;9.60;59.10
22098;DHT22;11215;51.938;8.464;2023-04-15T04:39:58;9.60;59.20
22098;DHT22;11215;51.938;8.464;2023-04-15T04:42:23;9.70;59.30
22098;DHT22;11215;51.938;8.464;2023-04-15T04:44:49;9.70;59.40
22098;DHT22;11215;51.938;8.464;2023-04-15T04:47:14;9.70;59.50
22098;DHT22;11215;51.938;8.464;2023-04-15T04:49:41;9.70;59.50
22098;DHT22;11215;51.938;8.464;2023-04-15T04:52:06;9.70;59.60
22098;DHT22;11215;51.938;8.464;2023-04-15T04:54:32;9.70;59.60
22098;DHT22;11215;51.938;8.464;2023-04-15T04:56:58;9.70;59.50
22098;DHT22;11215;51.938;8.464;2023-04-15T04:59:24;9.80;59.70
22098;DHT22;11215;51.938;8.464;2023-04-15T05:01:50;9.70;59.70
22098;DHT22;11215;51.938;8.464;2023-04-15T05:04:15;9.80;60.00
22098;DHT22;11215;51.938;8.464;2023-04-15T05:06:41;9.80;60.00
22098;DHT22;11215;51.938;8.464;2023-04-15T05:09:06;9.80;60.10
22098;DHT22;11215;51.938;8.464;2023-04-15T05:11:32;9.80;60.20
22098;DHT22;11215;51.938;8.464;2023-04-15T05:13:58;9.80;60.30
22098;DHT22;11215;51.938;8.464;2023-04-15T05:16:26;9.80;60.30
22098;DHT22;11215;51.938;8.464;2023-04-15T05:18:52;9.90;60.50
22098;DHT22;11215;51.938;8.464;2023-04-15T05:21:18;9.90;60.60
22098;DHT22;11215;51.938;8.464;2023-04-15T05:23:46;9.90;60.80
22098;DHT22;11215;51.938;8.464;2023-04-15T05:26:11;9.90;61.80
22098;DHT22;11215;51.938;8.464;2023-04-15T05:28:37;9.90;60.80
22098;DHT22;11215;51.938;8.464;2023-04-15T05:31:03;9.90;60.90
22098;DHT22;11215;51.938;8.464;2023-04-15T05:33:28;9.90;61.10
22098;DHT22;11215;51.938;8.464;2023-04-15T05:35:54;10.00;61.20
22098;DHT22;11215;51.938;8.464;2023-04-15T05:38:20;10.00;61.30
22098;DHT22;11215;51.938;8.464;2023-04-15T05:40:45;10.00;61.30
22098;DHT22;11215;51.938;8.464;2023-04-15T05:43:11;10.00;61.30
22098;DHT22;11215;51.938;8.464;2023-04-15T05:45:37;10.00;61.50
22098;DHT22;11215;51.938;8.464;2023-04-15T05:48:02;10.00;61.60
22098;DHT22;11215;51.938;8.464;2023-04-15T05:50:28;10.10;61.60
22098;DHT22;11215;51.938;8.464;2023-04-15T05:52:54;10.10;61.70
22098;DHT22;11215;51.938;8.464;2023-04-15T05:55:20;10.10;61.70
22098;DHT22;11215;51.938;8.464;2023-04-15T05:57:46;10.10;61.90
22098;DHT22;11215;51.938;8.464;2023-04-15T06:00:12;10.20;62.00
22098;DHT22;11215;51.938;8.464;2023-04-15T06:02:38;10.20;62.00
22098;DHT22;11215;51.938;8.464;2023-04-15T06:05:04;10.20;62.30
22098;DHT22;11215;51.938;8.464;2023-04-15T06:07:34;10.20;61.90
22098;DHT22;11215;51.938;8.464;2023-04-15T06:10:02;10.20;62.00
22098;DHT22;11215;51.938;8.464;2023-04-15T06:12:27;10.30;62.10
22098;DHT22;11215;51.938;8.464;2023-04-15T06:14:53;10.30;62.10
22098;DHT22;11215;51.938;8.464;2023-04-15T06:17:54;10.30;62.50
